Time;durP1;ratioP1;P1;durP2;ratioP2;P2;SDS_P1;SDS_P2;PMS_P1;PMS_P2;Temp;Humidity;BMP_temperature;BMP_pressure;BME280_temperature;BME280_humidity;BME280_pressure;Samples;Min_cycle;Max_cycle;Signal;HPM_P1;HPM_P2
2022/08/27 00:00:36;;;;;;;15.93;11.07;;;;;;;;;;5052940;28;20025;-72
2022/08/27 00:03:02;;;;;;;15.48;11.65;;;;;;;;;;5053348;28;20037;-72
2022/08/27 00:05:28;;;;;;;16.65;9.65;;;;;;;;;;5053307;28;20076;-72
2022/08/27 00:07:54;;;;;;;14.43;9.75;;;;;;;;;;5052767;28;20025;-73
2022/08/27 00:10:23;;;;;;;24.65;14.38;;;;;;;;;;5054588;28;20287;-74
2022/08/27 00:12:49;;;;;;;17.55;12.55;;;;;;;;;;5053824;28;20020;-74
2022/08/27 00:15:16;;;;;;;15.68;12.40;;;;;;;;;;5054535;28;20033;-73
2022/08/27 00:17:44;;;;;;;19.77;13.57;;;;;;;;;;5053876;28;20179;-72
2022/08/27 00:20:10;;;;;;;14.32;11.27;;;;;;;;;;5054922;28;20037;-73
2022/08/27 00:22:36;;;;;;;16.92;12.02;;;;;;;;;;5053416;28;20023;-75
2022/08/27 00:25:03;;;;;;;17.13;12.85;;;;;;;;;;5054395;28;20029;-72
2022/08/27 00:27:30;;;;;;;21.65;12.07;;;;;;;;;;5051976;28;20032;-73
2022/08/27 00:29:56;;;;;;;14.60;10.15;;;;;;;;;;5053715;28;20056;-74
2022/08/27 00:32:22;;;;;;;17.10;10.80;;;;;;;;;;5051958;28;20033;-73
2022/08/27 00:34:48;;;;;;;30.15;14.95;;;;;;;;;;5051457;28;20075;-72
2022/08/27 00:37:14;;;;;;;136.65;61.30;;;;;;;;;;5051302;28;20028;-72
2022/08/27 00:39:40;;;;;;;50.17;24.23;;;;;;;;;;5051725;28;20391;-73
2022/08/27 00:42:06;;;;;;;13.93;10.75;;;;;;;;;;5051920;28;20482;-73
2022/08/27 00:44:33;;;;;;;19.52;11.40;;;;;;;;;;5050214;28;20032;-74
2022/08/27 00:47:00;;;;;;;13.55;11.07;;;;;;;;;;5051322;28;20028;-71
2022/08/27 00:49:34;;;;;;;80.68;35.97;;;;;;;;;;5051041;28;20021;-72
2022/08/27 00:52:02;;;;;;;35.22;16.63;;;;;;;;;;5051587;28;20078;-73
2022/08/27 00:54:28;;;;;;;21.63;13.23;;;;;;;;;;5051404;28;20025;-74
2022/08/27 00:56:54;;;;;;;16.85;9.75;;;;;;;;;;5051505;28;20028;-73
2022/08/27 00:59:22;;;;;;;16.23;9.88;;;;;;;;;;5050421;28;20490;-71
2022/08/27 01:04:35;;;;;;;11.82;8.52;;;;;;;;;;5065002;22;20056;-73
2022/08/27 01:07:01;;;;;;;10.60;7.60;;;;;;;;;;5050966;28;20028;-74
2022/08/27 01:09:28;;;;;;;13.30;8.65;;;;;;;;;;5049404;28;20045;-74
2022/08/27 01:11:55;;;;;;;12.88;9.20;;;;;;;;;;5051288;28;20025;-74
2022/08/27 01:14:21;;;;;;;10.07;8.15;;;;;;;;;;5049589;28;20029;-75
2022/08/27 01:16:49;;;;;;;13.60;7.95;;;;;;;;;;5051113;28;20106;-74
2022/08/27 01:19:23;;;;;;;12.00;8.40;;;;;;;;;;5051067;28;20071;-74
2022/08/27 01:21:55;;;;;;;9.52;7.88;;;;;;;;;;5051526;28;20475;-74
2022/08/27 01:24:21;;;;;;;13.30;8.23;;;;;;;;;;5051068;28;20101;-74
2022/08/27 01:26:47;;;;;;;13.18;8.75;;;;;;;;;;5051450;28;20029;-74
2022/08/27 01:29:14;;;;;;;14.48;9.13;;;;;;;;;;5049354;28;20025;-74
2022/08/27 01:31:40;;;;;;;12.63;8.35;;;;;;;;;;5051019;28;20407;-74
2022/08/27 01:34:06;;;;;;;12.57;7.97;;;;;;;;;;5048912;28;20025;-75
2022/08/27 01:36:32;;;;;;;10.98;6.90;;;;;;;;;;5051907;28;20086;-74
2022/08/27 01:38:58;;;;;;;11.32;8.38;;;;;;;;;;5052391;28;20044;-74
2022/08/27 01:41:25;;;;;;;12.15;8.05;;;;;;;;;;5051137;28;20055;-74
2022/08/27 01:43:51;;;;;;;9.18;7.20;;;;;;;;;;5051859;28;20558;-73
2022/08/27 01:46:24;;;;;;;11.05;7.40;;;;;;;;;;5056744;28;20025;-73
2022/08/27 01:48:50;;;;;;;10.13;7.80;;;;;;;;;;5057575;28;20431;-74
2022/08/27 01:51:16;;;;;;;10.88;7.43;;;;;;;;;;5045228;28;20025;-74
2022/08/27 01:53:42;;;;;;;10.63;7.05;;;;;;;;;;5060290;28;20036;-74
2022/08/27 01:56:10;;;;;;;11.05;7.28;;;;;;;;;;5058041;28;20021;-74
2022/08/27 01:58:37;;;;;;;11.75;5.80;;;;;;;;;;5053094;28;20503;-74
2022/08/27 02:01:08;;;;;;;8.13;5.93;;;;;;;;;;5051060;28;20033;-74
2022/08/27 02:03:35;;;;;;;7.55;5.90;;;;;;;;;;5050197;28;20438;-74
2022/08/27 02:06:04;;;;;;;7.93;6.07;;;;;;;;;;5050882;28;20031;-74
2022/08/27 02:08:30;;;;;;;9.65;5.63;;;;;;;;;;5051101;28;20109;-74
2022/08/27 02:10:56;;;;;;;7.97;5.72;;;;;;;;;;5050719;28;20029;-74
2022/08/27 02:13:22;;;;;;;9.00;5.82;;;;;;;;;;5051007;28;20029;-74
2022/08/27 02:15:48;;;;;;;7.90;5.90;;;;;;;;;;5050731;28;20029;-74
2022/08/27 02:18:14;;;;;;;7.95;5.78;;;;;;;;;;5049387;28;20025;-74
2022/08/27 02:20:41;;;;;;;7.88;5.15;;;;;;;;;;5050457;28;20395;-74
2022/08/27 02:23:07;;;;;;;8.60;5.45;;;;;;;;;;5033005;28;20044;-74
2022/08/27 02:25:34;;;;;;;8.85;5.05;;;;;;;;;;5049192;28;20021;-74
2022/08/27 02:28:00;;;;;;;5.85;4.90;;;;;;;;;;5049290;28;20028;-74
2022/08/27 02:30:27;;;;;;;8.68;4.78;;;;;;;;;;5050697;28;20028;-75
2022/08/27 02:32:53;;;;;;;6.10;4.60;;;;;;;;;;5050201;28;20495;-74
2022/08/27 02:35:20;;;;;;;5.28;4.22;;;;;;;;;;5050496;28;20024;-74
2022/08/27 02:37:48;;;;;;;11.70;5.20;;;;;;;;;;5050622;28;20451;-74
2022/08/27 02:40:15;;;;;;;7.00;4.47;;;;;;;;;;5050828;28;20410;-73
2022/08/27 02:42:41;;;;;;;6.68;5.18;;;;;;;;;;5050419;28;20032;-73
2022/08/27 02:45:08;;;;;;;6.32;4.88;;;;;;;;;;5050694;28;20033;-74
2022/08/27 02:47:34;;;;;;;6.97;4.82;;;;;;;;;;5053070;28;20032;-74
2022/08/27 02:50:01;;;;;;;5.97;4.68;;;;;;;;;;5054493;28;20052;-74
2022/08/27 02:52:28;;;;;;;8.95;5.30;;;;;;;;;;5053933;28;20032;-74
2022/08/27 02:54:54;;;;;;;6.68;4.93;;;;;;;;;;5053032;28;20028;-74
2022/08/27 02:57:21;;;;;;;8.50;5.10;;;;;;;;;;5053609;28;20417;-74
2022/08/27 02:59:47;;;;;;;5.93;5.30;;;;;;;;;;5054209;28;20383;-74
2022/08/27 03:02:13;;;;;;;5.68;4.65;;;;;;;;;;5053959;28;20524;-74
2022/08/27 03:04:39;;;;;;;7.78;5.47;;;;;;;;;;5053831;28;20057;-75
2022/08/27 03:07:05;;;;;;;5.55;4.75;;;;;;;;;;5053737;28;20040;-74
2022/08/27 03:09:32;;;;;;;6.93;5.00;;;;;;;;;;5053837;28;20029;-74
2022/08/27 03:11:58;;;;;;;8.80;5.55;;;;;;;;;;5053901;28;20029;-74
2022/08/27 03:14:24;;;;;;;7.65;5.00;;;;;;;;;;5053960;28;20108;-75
2022/08/27 03:16:50;;;;;;;8.70;5.30;;;;;;;;;;5053882;28;20041;-74
2022/08/27 03:19:16;;;;;;;5.65;4.93;;;;;;;;;;5053289;28;20021;-74
2022/08/27 03:21:43;;;;;;;6.60;5.22;;;;;;;;;;5053671;28;20032;-75
2022/08/27 03:24:09;;;;;;;5.50;4.75;;;;;;;;;;5051887;28;20466;-74
2022/08/27 03:26:35;;;;;;;5.20;4.55;;;;;;;;;;5052046;28;20057;-74
2022/08/27 03:29:01;;;;;;;5.90;4.97;;;;;;;;;;5052933;28;20029;-74
2022/08/27 03:31:28;;;;;;;8.25;5.90;;;;;;;;;;5053440;28;20547;-73
2022/08/27 03:33:58;;;;;;;7.70;5.82;;;;;;;;;;5053344;28;20086;-74
2022/08/27 03:36:25;;;;;;;9.20;5.63;;;;;;;;;;5053278;28;20060;-74
2022/08/27 03:38:51;;;;;;;8.52;6.07;;;;;;;;;;5053052;28;20025;-74
2022/08/27 03:41:17;;;;;;;6.68;5.53;;;;;;;;;;5053273;28;20033;-74
2022/08/27 03:43:44;;;;;;;6.03;5.22;;;;;;;;;;5053169;28;20099;-74
2022/08/27 03:46:10;;;;;;;7.22;5.50;;;;;;;;;;5053049;28;20021;-74
2022/08/27 03:48:36;;;;;;;10.57;5.90;;;;;;;;;;5052855;28;20107;-75
2022/08/27 03:51:06;;;;;;;6.35;5.57;;;;;;;;;;5051454;28;20029;-74
2022/08/27 03:53:32;;;;;;;7.97;5.65;;;;;;;;;;5051444;28;20027;-74
2022/08/27 03:55:58;;;;;;;8.48;6.07;;;;;;;;;;5052880;28;20025;-74
2022/08/27 03:58:24;;;;;;;10.25;6.25;;;;;;;;;;5052029;28;20017;-74
2022/08/27 04:00:50;;;;;;;11.38;8.98;;;;;;;;;;5052486;28;20029;-74
2022/08/27 04:03:16;;;;;;;12.43;10.00;;;;;;;;;;5052635;28;20028;-75
2022/08/27 04:05:42;;;;;;;17.55;11.80;;;;;;;;;;5052645;28;20102;-74
2022/08/27 04:08:09;;;;;;;24.77;14.52;;;;;;;;;;5052617;28;20489;-74
2022/08/27 04:10:38;;;;;;;26.15;15.75;;;;;;;;;;5052664;28;20033;-74
2022/08/27 04:13:04;;;;;;;29.48;18.38;;;;;;;;;;5052931;28;20029;-75
2022/08/27 04:15:31;;;;;;;30.52;19.67;;;;;;;;;;5055518;28;20048;-74
2022/08/27 04:17:57;;;;;;;297.83;178.95;;;;;;;;;;5045826;28;20032;-75
2022/08/27 04:20:23;;;;;;;532.30;274.80;;;;;;;;;;5058354;28;20025;-74
2022/08/27 04:22:49;;;;;;;110.90;46.30;;;;;;;;;;5058308;28;20108;-76
2022/08/27 04:25:15;;;;;;;135.43;50.85;;;;;;;;;;5059995;28;20112;-75
2022/08/27 04:27:42;;;;;;;48.75;24.23;;;;;;;;;;5059952;28;20021;-75
2022/08/27 04:30:09;;;;;;;103.60;40.53;;;;;;;;;;5055738;28;20096;-75
2022/08/27 04:32:35;;;;;;;67.03;29.23;;;;;;;;;;5051807;28;20120;-74
2022/08/27 04:35:01;;;;;;;27.73;18.40;;;;;;;;;;5052380;28;20467;-75
2022/08/27 04:37:31;;;;;;;41.65;22.30;;;;;;;;;;5050593;28;20032;-75
2022/08/27 04:39:58;;;;;;;43.67;22.60;;;;;;;;;;5052054;28;20024;-75
2022/08/27 04:42:24;;;;;;;36.17;20.88;;;;;;;;;;5051784;28;20028;-75
2022/08/27 04:44:52;;;;;;;44.17;22.73;;;;;;;;;;5051865;28;20021;-75
2022/08/27 04:47:19;;;;;;;29.70;19.67;;;;;;;;;;5051550;28;20458;-75
2022/08/27 04:49:45;;;;;;;42.03;21.55;;;;;;;;;;5051870;28;20025;-75
2022/08/27 04:52:12;;;;;;;29.10;18.10;;;;;;;;;;5051591;28;20032;-76
2022/08/27 04:54:38;;;;;;;42.83;22.70;;;;;;;;;;5038346;28;20092;-75
2022/08/27 04:57:06;;;;;;;30.42;19.33;;;;;;;;;;5051799;28;20028;-75
2022/08/27 04:59:33;;;;;;;43.08;22.50;;;;;;;;;;5051553;28;20116;-74
2022/08/27 05:02:00;;;;;;;38.50;22.00;;;;;;;;;;5051650;28;20049;-75
2022/08/27 05:04:26;;;;;;;52.65;25.08;;;;;;;;;;5051165;28;20472;-76
2022/08/27 05:06:52;;;;;;;38.92;21.98;;;;;;;;;;5051591;28;20024;-76
2022/08/27 05:09:18;;;;;;;43.78;22.40;;;;;;;;;;5050222;28;20100;-75
2022/08/27 05:11:45;;;;;;;37.85;21.08;;;;;;;;;;5051369;28;20490;-76
2022/08/27 05:14:12;;;;;;;36.13;22.10;;;;;;;;;;5051191;28;20123;-76
2022/08/27 05:16:38;;;;;;;37.05;21.42;;;;;;;;;;5051433;28;20021;-76
2022/08/27 05:19:07;;;;;;;37.47;20.83;;;;;;;;;;5050926;28;20055;-76
2022/08/27 05:21:34;;;;;;;41.53;22.02;;;;;;;;;;5051577;28;20486;-76
2022/08/27 05:24:01;;;;;;;44.33;24.23;;;;;;;;;;5052260;28;20036;-76
2022/08/27 05:26:27;;;;;;;58.33;25.58;;;;;;;;;;5052755;28;20025;-76
2022/08/27 05:28:53;;;;;;;48.55;24.85;;;;;;;;;;5052476;28;20028;-76
2022/08/27 05:31:20;;;;;;;55.55;27.83;;;;;;;;;;5052404;28;20108;-76
2022/08/27 05:33:46;;;;;;;52.38;26.02;;;;;;;;;;5051968;28;20479;-76
2022/08/27 05:36:17;;;;;;;67.05;29.25;;;;;;;;;;5050977;28;20029;-76
2022/08/27 05:38:43;;;;;;;62.22;28.45;;;;;;;;;;5051141;28;20517;-75
2022/08/27 05:41:10;;;;;;;74.95;32.15;;;;;;;;;;5050863;28;20075;-76
2022/08/27 05:43:37;;;;;;;1030.20;401.40;;;;;;;;;;5051064;28;20445;-76
2022/08/27 05:46:04;;;;;;;633.03;245.85;;;;;;;;;;5049524;28;20025;-76
2022/08/27 05:48:31;;;;;;;266.30;91.68;;;;;;;;;;5051099;28;20029;-76
2022/08/27 05:50:57;;;;;;;496.05;152.30;;;;;;;;;;5049676;28;20044;-76
2022/08/27 05:53:23;;;;;;;186.60;68.10;;;;;;;;;;5050842;28;20581;-76
2022/08/27 05:55:49;;;;;;;191.98;66.85;;;;;;;;;;5050988;28;20021;-76
2022/08/27 06:01:13;;;;;;;98.18;50.17;;;;;;;;;;5014182;28;20123;-77
2022/08/27 06:03:40;;;;;;;110.93;50.97;;;;;;;;;;5050980;28;20037;-76
2022/08/27 06:06:08;;;;;;;67.90;40.63;;;;;;;;;;5050748;28;20036;-77
2022/08/27 06:08:34;;;;;;;119.90;53.75;;;;;;;;;;5049449;28;20814;-76
2022/08/27 06:11:01;;;;;;;92.10;49.20;;;;;;;;;;5050602;28;20029;-77
2022/08/27 06:13:27;;;;;;;95.82;48.45;;;;;;;;;;5051153;28;20049;-76
2022/08/27 06:16:02;;;;;;;108.95;51.08;;;;;;;;;;5050674;28;20031;-76
2022/08/27 06:18:28;;;;;;;95.53;49.00;;;;;;;;;;5049312;28;20017;-75
2022/08/27 06:20:55;;;;;;;85.10;45.30;;;;;;;;;;5052718;28;20126;-75
2022/08/27 06:23:20;;;;;;;87.75;46.97;;;;;;;;;;5053152;28;20029;-75
2022/08/27 06:25:46;;;;;;;73.13;43.60;;;;;;;;;;5054112;28;20025;-74
2022/08/27 06:28:12;;;;;;;88.28;46.83;;;;;;;;;;5054467;28;20036;-76
2022/08/27 06:30:38;;;;;;;86.28;46.58;;;;;;;;;;5054544;28;20021;-75
2022/08/27 06:33:04;;;;;;;86.93;46.63;;;;;;;;;;5054590;28;20075;-75
2022/08/27 06:35:34;;;;;;;100.18;50.58;;;;;;;;;;5053177;28;20063;-76
2022/08/27 06:38:00;;;;;;;69.80;41.90;;;;;;;;;;5055088;28;20029;-75
2022/08/27 06:40:26;;;;;;;75.75;44.10;;;;;;;;;;5054283;28;20032;-76
2022/08/27 06:42:52;;;;;;;60.63;38.88;;;;;;;;;;5055338;28;20067;-77
2022/08/27 06:45:18;;;;;;;75.95;42.38;;;;;;;;;;5055436;28;20033;-75
2022/08/27 06:47:44;;;;;;;70.88;43.17;;;;;;;;;;5055271;28;20436;-76
2022/08/27 06:50:10;;;;;;;59.63;37.72;;;;;;;;;;5055349;28;20107;-76
2022/08/27 06:52:36;;;;;;;55.08;37.70;;;;;;;;;;5054871;28;20017;-76
2022/08/27 06:55:02;;;;;;;44.58;33.33;;;;;;;;;;5054393;28;20475;-76
2022/08/27 06:57:28;;;;;;;35.55;26.83;;;;;;;;;;5052240;28;20021;-76
2022/08/27 06:59:54;;;;;;;572.40;314.10;;;;;;;;;;5053942;28;20379;-75
2022/08/27 07:02:21;;;;;;;42.78;30.02;;;;;;;;;;5053795;28;20033;-75
2022/08/27 07:04:47;;;;;;;93.22;47.50;;;;;;;;;;5090825;22;20049;-80
2022/08/27 07:07:13;;;;;;;702.83;364.20;;;;;;;;;;5075517;28;20039;-80
2022/08/27 07:09:39;;;;;;;65.75;38.30;;;;;;;;;;5077569;28;20087;-80
2022/08/27 07:12:05;;;;;;;102.43;48.03;;;;;;;;;;5077588;28;20032;-78
2022/08/27 07:14:32;;;;;;;63.08;35.10;;;;;;;;;;5058828;28;20025;-77
2022/08/27 07:16:58;;;;;;;50.78;29.25;;;;;;;;;;5065186;28;20028;-77
2022/08/27 07:19:24;;;;;;;33.40;24.85;;;;;;;;;;5047635;28;20017;-78
2022/08/27 07:21:50;;;;;;;38.10;26.05;;;;;;;;;;5073753;28;20029;-77
2022/08/27 07:24:17;;;;;;;23.15;20.67;;;;;;;;;;5077841;28;20024;-78
2022/08/27 07:26:43;;;;;;;22.52;18.77;;;;;;;;;;5062421;28;20043;-77
2022/08/27 07:29:11;;;;;;;23.25;20.67;;;;;;;;;;5072218;28;20033;-80
2022/08/27 07:31:37;;;;;;;26.52;20.25;;;;;;;;;;5070454;28;20033;-77
2022/08/27 07:34:04;;;;;;;26.58;20.85;;;;;;;;;;5056028;28;20032;-77
2022/08/27 07:36:30;;;;;;;21.85;18.30;;;;;;;;;;5056881;28;20028;-78
2022/08/27 07:38:56;;;;;;;24.50;18.13;;;;;;;;;;5055110;28;20479;-79
2022/08/27 07:41:23;;;;;;;23.05;18.77;;;;;;;;;;5047305;28;20056;-77
2022/08/27 07:46:34;;;;;;;740.83;413.52;;;;;;;;;;5066162;28;20525;-77
2022/08/27 07:49:00;;;;;;;196.10;100.03;;;;;;;;;;5060246;28;20036;-77
2022/08/27 07:51:27;;;;;;;43.17;27.67;;;;;;;;;;5055939;28;20025;-78
2022/08/27 07:53:53;;;;;;;84.65;42.80;;;;;;;;;;5039890;28;20032;-78
2022/08/27 07:56:19;;;;;;;25.88;21.60;;;;;;;;;;5058147;28;20104;-79
2022/08/27 07:58:45;;;;;;;37.60;25.75;;;;;;;;;;5056745;28;20115;-78
2022/08/27 08:01:12;;;;;;;36.67;26.30;;;;;;;;;;5041026;28;20025;-78
2022/08/27 08:03:38;;;;;;;31.15;23.52;;;;;;;;;;5057622;28;20080;-79
2022/08/27 08:06:05;;;;;;;30.13;20.63;;;;;;;;;;5057759;28;20108;-79
2022/08/27 08:08:32;;;;;;;31.45;24.58;;;;;;;;;;5057231;28;20167;-79
2022/08/27 08:10:58;;;;;;;28.02;23.92;;;;;;;;;;5057945;28;20033;-78
2022/08/27 08:13:25;;;;;;;224.15;138.13;;;;;;;;;;5056051;28;20112;-78
2022/08/27 08:15:51;;;;;;;464.30;265.48;;;;;;;;;;5054183;28;20099;-79
2022/08/27 08:18:17;;;;;;;627.13;308.60;;;;;;;;;;5053489;28;20024;-77
2022/08/27 08:20:43;;;;;;;543.20;272.73;;;;;;;;;;5053962;28;20108;-79
2022/08/27 08:23:09;;;;;;;35.03;25.90;;;;;;;;;;5055095;28;20021;-78
2022/08/27 08:25:36;;;;;;;87.55;44.53;;;;;;;;;;5039309;28;20443;-77
2022/08/27 08:28:02;;;;;;;31.73;24.65;;;;;;;;;;5056566;28;20048;-77
2022/08/27 08:30:28;;;;;;;35.67;25.65;;;;;;;;;;5062583;28;20028;-79
2022/08/27 08:32:54;;;;;;;30.20;23.38;;;;;;;;;;5055033;28;20331;-78
2022/08/27 08:35:20;;;;;;;32.15;24.75;;;;;;;;;;5055900;28;20025;-77
2022/08/27 08:37:46;;;;;;;26.27;22.45;;;;;;;;;;5037360;28;20411;-79
2022/08/27 08:40:32;;;;;;;32.67;26.30;;;;;;;;;;5057318;28;20021;-78
2022/08/27 08:42:59;;;;;;;28.85;23.17;;;;;;;;;;5047156;28;20020;-79
2022/08/27 08:45:27;;;;;;;26.35;21.58;;;;;;;;;;5048991;28;20036;-78
2022/08/27 08:47:56;;;;;;;22.45;18.60;;;;;;;;;;5058240;28;20025;-78
2022/08/27 08:50:37;;;;;;;22.20;18.58;;;;;;;;;;5058046;28;20029;-76
2022/08/27 08:53:18;;;;;;;32.28;19.88;;;;;;;;;;5060332;28;20039;-76
2022/08/27 08:55:48;;;;;;;23.08;17.30;;;;;;;;;;5061897;28;20752;-77
2022/08/27 08:58:14;;;;;;;18.63;16.52;;;;;;;;;;5057534;28;20032;-76
2022/08/27 09:00:42;;;;;;;20.98;17.70;;;;;;;;;;5057981;28;20036;-77
2022/08/27 09:03:11;;;;;;;22.35;18.08;;;;;;;;;;5056175;28;20104;-78
2022/08/27 09:05:38;;;;;;;20.38;16.17;;;;;;;;;;5055923;28;20021;-77
2022/08/27 09:08:05;;;;;;;19.45;16.20;;;;;;;;;;5052418;28;20029;-79
2022/08/27 09:10:33;;;;;;;17.05;15.45;;;;;;;;;;5052655;28;20048;-79
2022/08/27 09:13:02;;;;;;;18.25;16.30;;;;;;;;;;5058859;28;20060;-77
2022/08/27 09:15:32;;;;;;;18.38;16.05;;;;;;;;;;5044296;28;20068;-79
2022/08/27 09:18:24;;;;;;;19.52;16.08;;;;;;;;;;5059850;28;20025;-77
2022/08/27 09:20:54;;;;;;;18.60;15.38;;;;;;;;;;5050902;28;20033;-77
2022/08/27 09:23:33;;;;;;;17.83;15.85;;;;;;;;;;5051753;28;20033;-77
2022/08/27 09:25:59;;;;;;;17.58;15.73;;;;;;;;;;5051255;28;20027;-76
2022/08/27 09:31:15;;;;;;;17.45;15.68;;;;;;;;;;5051586;28;20056;-76
2022/08/27 09:33:41;;;;;;;15.23;13.75;;;;;;;;;;5051384;28;20075;-77
2022/08/27 09:36:09;;;;;;;16.80;13.63;;;;;;;;;;5051231;28;20029;-77
2022/08/27 09:38:36;;;;;;;14.43;11.43;;;;;;;;;;5032468;28;20079;-76
2022/08/27 09:41:06;;;;;;;13.13;11.77;;;;;;;;;;5033994;28;20071;-78
2022/08/27 09:43:32;;;;;;;13.55;11.77;;;;;;;;;;5051551;28;20415;-77
2022/08/27 09:46:17;;;;;;;12.65;11.45;;;;;;;;;;5051796;28;20028;-77
2022/08/27 09:48:43;;;;;;;14.60;11.95;;;;;;;;;;5050721;28;20049;-78
2022/08/27 09:51:12;;;;;;;16.45;14.75;;;;;;;;;;5051045;28;20060;-77
2022/08/27 09:53:49;;;;;;;13.90;12.27;;;;;;;;;;5051345;28;20014;-76
2022/08/27 09:56:26;;;;;;;16.25;14.52;;;;;;;;;;5054143;28;20063;-77
2022/08/27 09:58:54;;;;;;;15.88;14.23;;;;;;;;;;5052960;28;20052;-77
2022/08/27 10:01:24;;;;;;;16.38;14.15;;;;;;;;;;5055799;28;20028;-77
2022/08/27 10:03:50;;;;;;;14.85;12.57;;;;;;;;;;5054665;28;20032;-77
2022/08/27 10:06:26;;;;;;;15.25;13.73;;;;;;;;;;5054722;28;20025;-77
2022/08/27 10:08:53;;;;;;;15.73;13.98;;;;;;;;;;5053648;28;20025;-78
2022/08/27 10:11:32;;;;;;;15.07;13.57;;;;;;;;;;5054613;28;20063;-77
2022/08/27 10:14:16;;;;;;;15.07;13.55;;;;;;;;;;5054665;28;20514;-77
2022/08/27 10:16:54;;;;;;;13.77;11.48;;;;;;;;;;5054846;28;20036;-78
2022/08/27 10:19:52;;;;;;;11.30;10.30;;;;;;;;;;5053477;28;20507;-77
2022/08/27 10:22:18;;;;;;;11.57;10.13;;;;;;;;;;5004573;28;20128;-75
2022/08/27 10:24:54;;;;;;;11.10;9.98;;;;;;;;;;5067301;28;20009;-79
2022/08/27 10:27:29;;;;;;;10.02;9.02;;;;;;;;;;5053539;28;20028;-77
2022/08/27 10:30:10;;;;;;;6.63;6.05;;;;;;;;;;5059257;28;20029;-77
2022/08/27 10:32:39;;;;;;;27.58;15.60;;;;;;;;;;5053988;28;20025;-78
2022/08/27 10:35:22;;;;;;;10.45;7.15;;;;;;;;;;5053736;28;20023;-77
2022/08/27 10:37:54;;;;;;;8.13;6.43;;;;;;;;;;5053150;28;20434;-76
2022/08/27 10:40:20;;;;;;;8.10;5.25;;;;;;;;;;5036283;28;20029;-77
2022/08/27 10:43:05;;;;;;;7.13;5.47;;;;;;;;;;5054190;28;20429;-77
2022/08/27 10:45:45;;;;;;;6.18;5.25;;;;;;;;;;5054199;28;20036;-78
2022/08/27 10:48:17;;;;;;;11.13;6.03;;;;;;;;;;5061768;28;20017;-78
2022/08/27 10:50:54;;;;;;;5.00;4.35;;;;;;;;;;5058558;28;20029;-77
2022/08/27 10:53:38;;;;;;;6.05;5.38;;;;;;;;;;5053991;28;20017;-77
2022/08/27 10:56:11;;;;;;;7.03;5.63;;;;;;;;;;5053988;28;20021;-76
2022/08/27 10:58:37;;;;;;;5.53;5.03;;;;;;;;;;5055176;28;20028;-76
2022/08/27 11:01:24;;;;;;;5.85;5.25;;;;;;;;;;5055707;28;20041;-76
2022/08/27 11:03:53;;;;;;;13.70;8.75;;;;;;;;;;5053361;28;20041;-78
2022/08/27 11:06:23;;;;;;;19.20;7.03;;;;;;;;;;5059712;28;20021;-77
2022/08/27 11:08:52;;;;;;;11.85;8.82;;;;;;;;;;5059169;28;20056;-78
2022/08/27 11:11:38;;;;;;;11.13;6.15;;;;;;;;;;5060834;28;20517;-77
2022/08/27 11:14:08;;;;;;;12.73;7.32;;;;;;;;;;5058674;28;20017;-78
2022/08/27 11:16:37;;;;;;;6.03;4.53;;;;;;;;;;5036691;28;20108;-75
2022/08/27 11:19:08;;;;;;;7.18;4.70;;;;;;;;;;5034986;28;20609;-75
2022/08/27 11:21:39;;;;;;;3.53;3.10;;;;;;;;;;5054223;28;20155;-77
2022/08/27 11:24:11;;;;;;;34.88;20.42;;;;;;;;;;5054207;28;20036;-74
2022/08/27 11:26:40;;;;;;;15.95;9.07;;;;;;;;;;5054229;28;20117;-78
2022/08/27 11:29:10;;;;;;;46.67;24.60;;;;;;;;;;5057672;28;20056;-78
2022/08/27 11:31:39;;;;;;;30.50;16.80;;;;;;;;;;5053425;28;20029;-76
2022/08/27 11:34:44;;;;;;;19.80;11.13;;;;;;;;;;5053111;28;20025;-77
2022/08/27 11:37:21;;;;;;;8.02;6.25;;;;;;;;;;4974925;28;20566;-77
2022/08/27 11:39:50;;;;;;;8.90;5.70;;;;;;;;;;4984638;28;20547;-76
2022/08/27 11:42:54;;;;;;;6.68;4.47;;;;;;;;;;5018424;28;20064;-74
2022/08/27 11:45:37;;;;;;;15.70;7.78;;;;;;;;;;4991703;28;20054;-77
2022/08/27 11:48:23;;;;;;;6.13;4.97;;;;;;;;;;4991298;28;20027;-77
2022/08/27 11:50:54;;;;;;;13.25;8.20;;;;;;;;;;5038502;28;20128;-77
2022/08/27 11:53:24;;;;;;;8.38;5.97;;;;;;;;;;5063962;28;20520;-77
2022/08/27 11:55:52;;;;;;;6.10;4.97;;;;;;;;;;5053037;28;20059;-77
2022/08/27 11:58:18;;;;;;;5.68;4.82;;;;;;;;;;5053195;28;20577;-77
2022/08/27 12:00:45;;;;;;;5.97;4.40;;;;;;;;;;5058148;28;20426;-77
2022/08/27 12:03:31;;;;;;;4.13;3.33;;;;;;;;;;5053699;28;20025;-77
2022/08/27 12:05:57;;;;;;;3.80;3.47;;;;;;;;;;5053534;28;20551;-77
2022/08/27 12:08:23;;;;;;;3.83;3.15;;;;;;;;;;5052405;28;20104;-75
2022/08/27 12:10:55;;;;;;;4.43;4.03;;;;;;;;;;5062999;28;20035;-76
2022/08/27 12:13:37;;;;;;;4.13;3.35;;;;;;;;;;5065970;28;20028;-77
2022/08/27 12:16:24;;;;;;;3.75;3.45;;;;;;;;;;5067326;28;20088;-76
2022/08/27 12:19:05;;;;;;;4.72;3.75;;;;;;;;;;5050369;28;20029;-76
2022/08/27 12:21:50;;;;;;;4.53;4.13;;;;;;;;;;5062385;28;20103;-77
2022/08/27 12:24:18;;;;;;;5.00;4.50;;;;;;;;;;5056992;28;20031;-77
2022/08/27 12:26:55;;;;;;;5.38;4.28;;;;;;;;;;5053660;28;20025;-75
2022/08/27 12:29:23;;;;;;;4.72;4.32;;;;;;;;;;5052706;28;20028;-76
2022/08/27 12:31:50;;;;;;;4.55;4.15;;;;;;;;;;5052519;28;20566;-76
2022/08/27 12:34:17;;;;;;;5.00;4.53;;;;;;;;;;5052130;28;20021;-75
2022/08/27 12:36:45;;;;;;;5.38;4.88;;;;;;;;;;5052588;28;20478;-75
2022/08/27 12:39:14;;;;;;;4.63;4.15;;;;;;;;;;5052015;28;20031;-77
2022/08/27 12:41:44;;;;;;;5.25;4.75;;;;;;;;;;5052386;28;20534;-75
2022/08/27 12:44:12;;;;;;;5.05;4.57;;;;;;;;;;5052240;28;20513;-76
2022/08/27 12:46:44;;;;;;;5.68;4.88;;;;;;;;;;5034410;28;20064;-76
2022/08/27 12:49:10;;;;;;;4.55;4.15;;;;;;;;;;5051957;28;20442;-78
2022/08/27 12:51:36;;;;;;;5.68;5.18;;;;;;;;;;5052045;28;20063;-77
2022/08/27 12:54:12;;;;;;;4.95;4.45;;;;;;;;;;5052035;28;20021;-77
2022/08/27 12:56:50;;;;;;;5.25;4.75;;;;;;;;;;5052174;28;20032;-76
2022/08/27 12:59:29;;;;;;;4.95;4.43;;;;;;;;;;5056551;28;20029;-76
2022/08/27 13:02:02;;;;;;;5.57;5.07;;;;;;;;;;5051970;28;20024;-77
2022/08/27 13:04:30;;;;;;;5.68;5.07;;;;;;;;;;5073359;22;20103;-73
2022/08/27 13:06:59;;;;;;;5.70;5.13;;;;;;;;;;5039665;28;20036;-73
2022/08/27 13:09:29;;;;;;;7.60;5.18;;;;;;;;;;5031213;28;20013;-73
2022/08/27 13:11:56;;;;;;;6.93;6.05;;;;;;;;;;5031765;28;20022;-73
2022/08/27 13:14:23;;;;;;;5.97;5.45;;;;;;;;;;5036074;28;20025;-74
2022/08/27 13:16:51;;;;;;;6.45;5.85;;;;;;;;;;5051871;28;20024;-73
2022/08/27 13:19:31;;;;;;;7.15;5.43;;;;;;;;;;5051020;28;20021;-72
2022/08/27 13:21:57;;;;;;;6.72;5.90;;;;;;;;;;5051565;28;20056;-73
2022/08/27 13:24:28;;;;;;;6.82;6.13;;;;;;;;;;5051211;28;20021;-72
2022/08/27 13:26:56;;;;;;;7.45;6.40;;;;;;;;;;5050177;28;20033;-73
2022/08/27 13:29:22;;;;;;;7.07;6.32;;;;;;;;;;5050492;28;20027;-73
2022/08/27 13:31:48;;;;;;;6.53;5.90;;;;;;;;;;5051273;28;20117;-73
2022/08/27 13:34:17;;;;;;;9.30;7.55;;;;;;;;;;5051517;28;20056;-72
2022/08/27 13:36:58;;;;;;;7.90;7.20;;;;;;;;;;5050266;28;20398;-71
2022/08/27 13:39:25;;;;;;;8.07;6.57;;;;;;;;;;5049708;28;20544;-72
2022/08/27 13:41:51;;;;;;;9.65;7.53;;;;;;;;;;5051345;28;20506;-74
2022/08/27 13:44:23;;;;;;;12.35;6.78;;;;;;;;;;5051040;28;20013;-73
2022/08/27 13:46:51;;;;;;;8.77;7.75;;;;;;;;;;5049925;28;20025;-73
2022/08/27 13:49:22;;;;;;;8.55;7.65;;;;;;;;;;5050887;28;20422;-73
2022/08/27 13:51:48;;;;;;;9.47;8.50;;;;;;;;;;5050061;28;20032;-73
2022/08/27 13:54:14;;;;;;;10.25;8.27;;;;;;;;;;5051301;28;20326;-73
2022/08/27 13:56:46;;;;;;;8.82;7.82;;;;;;;;;;5051121;28;20032;-75
2022/08/27 13:59:16;;;;;;;9.60;8.18;;;;;;;;;;5049310;28;20115;-72
2022/08/27 14:01:43;;;;;;;11.00;8.15;;;;;;;;;;5050909;28;20029;-73
2022/08/27 14:04:19;;;;;;;9.63;8.63;;;;;;;;;;5050612;28;20040;-72
2022/08/27 14:06:46;;;;;;;8.85;7.97;;;;;;;;;;5051108;28;20028;-74
2022/08/27 14:09:16;;;;;;;8.50;7.60;;;;;;;;;;5049347;28;20163;-73
2022/08/27 14:11:42;;;;;;;9.30;8.25;;;;;;;;;;5049687;28;20124;-73
2022/08/27 14:14:08;;;;;;;10.50;7.85;;;;;;;;;;5050809;28;20036;-73
2022/08/27 14:16:36;;;;;;;12.07;8.20;;;;;;;;;;5051138;28;20491;-73
2022/08/27 14:19:05;;;;;;;10.93;9.27;;;;;;;;;;5051167;28;20403;-74
2022/08/27 14:21:31;;;;;;;10.55;9.45;;;;;;;;;;5051141;28;20208;-73
2022/08/27 14:23:57;;;;;;;9.73;8.77;;;;;;;;;;5050836;28;20043;-73
2022/08/27 14:26:25;;;;;;;12.20;9.48;;;;;;;;;;5051104;28;20096;-73
2022/08/27 14:28:51;;;;;;;93.75;56.80;;;;;;;;;;5051443;28;20456;-73
2022/08/27 14:31:17;;;;;;;15.32;9.63;;;;;;;;;;5051717;28;20116;-74
2022/08/27 14:33:45;;;;;;;46.13;24.40;;;;;;;;;;5051247;28;20017;-72
2022/08/27 14:36:11;;;;;;;18.35;13.05;;;;;;;;;;5050954;28;20024;-73
2022/08/27 14:38:39;;;;;;;14.65;11.60;;;;;;;;;;5050971;28;20028;-73
2022/08/27 14:41:05;;;;;;;23.30;14.35;;;;;;;;;;5051480;28;20525;-73
2022/08/27 14:43:31;;;;;;;10.77;7.65;;;;;;;;;;5054517;28;20394;-73
2022/08/27 14:45:57;;;;;;;7.95;7.15;;;;;;;;;;5054379;28;20033;-73